sensor_id;sensor_type;location;lat;lon;timestamp;pressure;altitude;pressure_sealevel;temperature;humidity
13765;BME280;6953;48.810;9.204;2023-09-18T00:01:59;98108.28;;;21.28;97.17
13765;BME280;6953;48.810;9.204;2023-09-18T00:04:25;98087.09;;;21.18;97.49
13765;BME280;6953;48.810;9.204;2023-09-18T00:06:50;98037.72;;;20.81;98.06
13765;BME280;6953;48.810;9.204;2023-09-18T00:09:15;98024.84;;;20.77;97.47
13765;BME280;6953;48.810;9.204;2023-09-18T00:11:41;98109.94;;;21.21;97.77
13765;BME280;6953;48.810;9.204;2023-09-18T00:14:07;97944.44;;;20.22;97.79
13765;BME280;6953;48.810;9.204;2023-09-18T00:16:33;98031.81;;;20.70;98.48
13765;BME280;6953;48.810;9.204;2023-09-18T00:18:58;98048.84;;;20.77;98.51
13765;BME280;6953;48.810;9.204;2023-09-18T00:21:24;98091.72;;;21.08;98.49
13765;BME280;6953;48.810;9.204;2023-09-18T00:23:50;98054.94;;;20.87;98.44
13765;BME280;6953;48.810;9.204;2023-09-18T00:26:16;98046.19;;;20.77;98.50
13765;BME280;6953;48.810;9.204;2023-09-18T00:28:44;98108.38;;;21.02;98.48
13765;BME280;6953;48.810;9.204;2023-09-18T00:31:09;97804.81;;;19.41;98.39
13765;BME280;6953;48.810;9.204;2023-09-18T00:33:35;98069.34;;;21.01;98.42
13765;BME280;6953;48.810;9.204;2023-09-18T00:36:00;98003.97;;;20.64;98.15
13765;BME280;6953;48.810;9.204;2023-09-18T00:38:26;97834.97;;;19.75;98.25
13765;BME280;6953;48.810;9.204;2023-09-18T00:40:51;98063.25;;;21.17;98.12
13765;BME280;6953;48.810;9.204;2023-09-18T00:43:16;98066.22;;;21.22;98.06
13765;BME280;6953;48.810;9.204;2023-09-18T00:45:44;98066.09;;;21.31;97.63
13765;BME280;6953;48.810;9.204;2023-09-18T00:48:11;97940.66;;;20.66;97.39
13765;BME280;6953;48.810;9.204;2023-09-18T00:50:37;98061.16;;;21.44;97.23
13765;BME280;6953;48.810;9.204;2023-09-18T00:53:04;98022.75;;;21.29;96.85
13765;BME280;6953;48.810;9.204;2023-09-18T00:55:29;98064.16;;;21.57;96.75
13765;BME280;6953;48.810;9.204;2023-09-18T00:57:56;98065.38;;;21.63;96.62
13765;BME280;6953;48.810;9.204;2023-09-18T01:00:22;98088.63;;;21.70;96.33
13765;BME280;6953;48.810;9.204;2023-09-18T01:02:48;98053.22;;;21.76;95.70
13765;BME280;6953;48.810;9.204;2023-09-18T01:05:13;98034.34;;;21.70;95.48
13765;BME280;6953;48.810;9.204;2023-09-18T01:07:41;97934.66;;;21.21;95.24
13765;BME280;6953;48.810;9.204;2023-09-18T01:10:07;98023.66;;;21.86;95.28
13765;BME280;6953;48.810;9.204;2023-09-18T01:12:40;98019.50;;;21.91;95.33
13765;BME280;6953;48.810;9.204;2023-09-18T01:15:18;98037.53;;;22.05;94.98
13765;BME280;6953;48.810;9.204;2023-09-18T01:17:46;98025.53;;;22.09;94.31
13765;BME280;6953;48.810;9.204;2023-09-18T01:20:12;98030.69;;;22.18;94.22
13765;BME280;6953;48.810;9.204;2023-09-18T01:22:37;98036.53;;;22.30;93.67
13765;BME280;6953;48.810;9.204;2023-09-18T01:25:03;98034.50;;;22.40;93.44
13765;BME280;6953;48.810;9.204;2023-09-18T01:27:28;98044.34;;;22.47;92.85
13765;BME280;6953;48.810;9.204;2023-09-18T01:29:54;97959.53;;;22.02;92.38
13765;BME280;6953;48.810;9.204;2023-09-18T01:32:19;98035.28;;;22.64;91.83
13765;BME280;6953;48.810;9.204;2023-09-18T01:34:50;97981.56;;;22.35;91.32
13765;BME280;6953;48.810;9.204;2023-09-18T01:37:20;98044.97;;;22.81;90.78
13765;BME280;6953;48.810;9.204;2023-09-18T01:39:48;98042.41;;;22.88;90.13
13765;BME280;6953;48.810;9.204;2023-09-18T01:42:14;98038.41;;;22.92;90.09
13765;BME280;6953;48.810;9.204;2023-09-18T01:44:40;98048.91;;;22.93;90.18
13765;BME280;6953;48.810;9.204;2023-09-18T01:47:11;97886.56;;;22.01;89.86
13765;BME280;6953;48.810;9.204;2023-09-18T01:49:39;97859.72;;;21.87;88.79
13765;BME280;6953;48.810;9.204;2023-09-18T01:52:06;98079.06;;;22.79;88.18
13765;BME280;6953;48.810;9.204;2023-09-18T01:54:33;98109.75;;;23.23;87.67
13765;BME280;6953;48.810;9.204;2023-09-18T01:56:58;98134.31;;;23.26;86.46
13765;BME280;6953;48.810;9.204;2023-09-18T01:59:24;98091.25;;;23.36;85.77
13765;BME280;6953;48.810;9.204;2023-09-18T02:01:50;97920.22;;;22.42;85.51
13765;BME280;6953;48.810;9.204;2023-09-18T02:04:16;98088.25;;;23.39;84.70
13765;BME280;6953;48.810;9.204;2023-09-18T02:06:42;98070.41;;;23.54;83.71
13765;BME280;6953;48.810;9.204;2023-09-18T02:09:07;98029.44;;;23.15;84.24
13765;BME280;6953;48.810;9.204;2023-09-18T02:11:38;98020.75;;;22.59;87.65
13765;BME280;6953;48.810;9.204;2023-09-18T02:14:04;98009.78;;;22.14;89.96
13765;BME280;6953;48.810;9.204;2023-09-18T02:16:32;97995.28;;;21.85;92.37
13765;BME280;6953;48.810;9.204;2023-09-18T02:18:57;97963.41;;;21.75;96.18
13765;BME280;6953;48.810;9.204;2023-09-18T02:21:22;97781.53;;;20.67;96.50
13765;BME280;6953;48.810;9.204;2023-09-18T02:23:52;97971.91;;;21.63;99.98
13765;BME280;6953;48.810;9.204;2023-09-18T02:26:19;97993.09;;;21.48;100.00
13765;BME280;6953;48.810;9.204;2023-09-18T02:28:44;97988.88;;;21.30;100.00
13765;BME280;6953;48.810;9.204;2023-09-18T02:31:09;97988.38;;;21.26;100.00
13765;BME280;6953;48.810;9.204;2023-09-18T02:33:35;97992.00;;;21.09;100.00
13765;BME280;6953;48.810;9.204;2023-09-18T02:36:00;97982.66;;;21.05;100.00
13765;BME280;6953;48.810;9.204;2023-09-18T02:38:27;97958.41;;;20.83;100.00
13765;BME280;6953;48.810;9.204;2023-09-18T02:40:52;97989.78;;;20.89;100.00
13765;BME280;6953;48.810;9.204;2023-09-18T02:43:19;98004.09;;;20.88;100.00
13765;BME280;6953;48.810;9.204;2023-09-18T02:45:44;98019.75;;;20.83;100.00
13765;BME280;6953;48.810;9.204;2023-09-18T02:48:11;98014.72;;;20.80;100.00
13765;BME280;6953;48.810;9.204;2023-09-18T02:50:36;98016.16;;;20.75;100.00
13765;BME280;6953;48.810;9.204;2023-09-18T02:53:01;98026.84;;;20.75;100.00
13765;BME280;6953;48.810;9.204;2023-09-18T02:55:28;98022.81;;;20.71;100.00
13765;BME280;6953;48.810;9.204;2023-09-18T02:57:53;98031.56;;;20.81;100.00
13765;BME280;6953;48.810;9.204;2023-09-18T03:00:18;98018.75;;;20.84;100.00
13765;BME280;6953;48.810;9.204;2023-09-18T03:02:44;98024.00;;;21.01;100.00
13765;BME280;6953;48.810;9.204;2023-09-18T03:05:09;98051.56;;;21.18;100.00
13765;BME280;6953;48.810;9.204;2023-09-18T03:07:34;98032.75;;;21.27;100.00
13765;BME280;6953;48.810;9.204;2023-09-18T03:10:00;98056.16;;;21.49;100.00
13765;BME280;6953;48.810;9.204;2023-09-18T03:12:25;98027.66;;;21.58;100.00
13765;BME280;6953;48.810;9.204;2023-09-18T03:14:50;97768.59;;;20.14;100.00
13765;BME280;6953;48.810;9.204;2023-09-18T03:17:16;98024.84;;;21.67;100.00
13765;BME280;6953;48.810;9.204;2023-09-18T03:19:41;98013.75;;;21.54;98.97
13765;BME280;6953;48.810;9.204;2023-09-18T03:22:06;97815.66;;;20.47;98.29
13765;BME280;6953;48.810;9.204;2023-09-18T03:24:32;97964.84;;;21.30;98.62
13765;BME280;6953;48.810;9.204;2023-09-18T03:26:57;98026.00;;;21.65;99.02
13765;BME280;6953;48.810;9.204;2023-09-18T03:29:22;98024.16;;;21.65;99.24
13765;BME280;6953;48.810;9.204;2023-09-18T03:31:48;98050.03;;;21.65;99.21
13765;BME280;6953;48.810;9.204;2023-09-18T03:34:13;98039.34;;;21.65;99.17
13765;BME280;6953;48.810;9.204;2023-09-18T03:36:38;98044.88;;;21.63;99.50
13765;BME280;6953;48.810;9.204;2023-09-18T03:39:04;97947.47;;;21.10;99.68
13765;BME280;6953;48.810;9.204;2023-09-18T03:41:30;98074.25;;;21.63;100.00
13765;BME280;6953;48.810;9.204;2023-09-18T03:43:59;97865.97;;;20.50;100.00
13765;BME280;6953;48.810;9.204;2023-09-18T03:46:25;98059.34;;;21.61;100.00
13765;BME280;6953;48.810;9.204;2023-09-18T03:48:50;98077.56;;;21.65;100.00
13765;BME280;6953;48.810;9.204;2023-09-18T03:51:15;98102.47;;;21.82;99.43
13765;BME280;6953;48.810;9.204;2023-09-18T03:53:41;97920.34;;;20.73;98.63
13765;BME280;6953;48.810;9.204;2023-09-18T03:56:06;98091.09;;;21.72;98.39
13765;BME280;6953;48.810;9.204;2023-09-18T03:58:31;98151.63;;;22.12;98.03
13765;BME280;6953;48.810;9.204;2023-09-18T04:00:56;98145.28;;;22.13;97.81
13765;BME280;6953;48.810;9.204;2023-09-18T04:03:22;98090.78;;;21.91;97.28
13765;BME280;6953;48.810;9.204;2023-09-18T04:05:47;98164.34;;;22.34;97.12
13765;BME280;6953;48.810;9.204;2023-09-18T04:08:12;98182.25;;;22.42;96.40
13765;BME280;6953;48.810;9.204;2023-09-18T04:10:38;98179.06;;;22.46;96.32
13765;BME280;6953;48.810;9.204;2023-09-18T04:13:03;98153.00;;;22.48;96.22
13765;BME280;6953;48.810;9.204;2023-09-18T04:15:29;98081.28;;;22.12;95.71
13765;BME280;6953;48.810;9.204;2023-09-18T04:17:55;98160.69;;;22.51;96.01
13765;BME280;6953;48.810;9.204;2023-09-18T04:20:21;98132.59;;;22.47;95.97
13765;BME280;6953;48.810;9.204;2023-09-18T04:22:47;98141.44;;;22.32;97.35
13765;BME280;6953;48.810;9.204;2023-09-18T04:25:15;98114.84;;;22.06;99.19
13765;BME280;6953;48.810;9.204;2023-09-18T04:27:41;98115.00;;;21.97;99.96
13765;BME280;6953;48.810;9.204;2023-09-18T04:30:07;97653.06;;;19.17;100.00
13765;BME280;6953;48.810;9.204;2023-09-18T04:32:37;97977.16;;;21.07;100.00
13765;BME280;6953;48.810;9.204;2023-09-18T04:35:03;98085.41;;;21.67;100.00
13765;BME280;6953;48.810;9.204;2023-09-18T04:37:30;98066.72;;;21.67;100.00
13765;BME280;6953;48.810;9.204;2023-09-18T04:39:57;98063.44;;;21.81;100.00
13765;BME280;6953;48.810;9.204;2023-09-18T04:42:22;97846.88;;;20.79;100.00
13765;BME280;6953;48.810;9.204;2023-09-18T04:44:48;98003.28;;;21.85;100.00
13765;BME280;6953;48.810;9.204;2023-09-18T04:47:13;97846.72;;;20.80;100.00
13765;BME280;6953;48.810;9.204;2023-09-18T04:49:38;98042.19;;;21.79;100.00
13765;BME280;6953;48.810;9.204;2023-09-18T04:52:04;97993.56;;;21.36;100.00
13765;BME280;6953;48.810;9.204;2023-09-18T04:54:30;98013.66;;;21.72;100.00
13765;BME280;6953;48.810;9.204;2023-09-18T04:56:56;97788.47;;;20.28;100.00
13765;BME280;6953;48.810;9.204;2023-09-18T04:59:21;98039.00;;;21.68;100.00
13765;BME280;6953;48.810;9.204;2023-09-18T05:01:46;98036.03;;;21.71;100.00
13765;BME280;6953;48.810;9.204;2023-09-18T05:04:12;98070.41;;;21.74;100.00
13765;BME280;6953;48.810;9.204;2023-09-18T05:06:38;98061.22;;;21.76;100.00
13765;BME280;6953;48.810;9.204;2023-09-18T05:09:04;98049.88;;;21.82;100.00
13765;BME280;6953;48.810;9.204;2023-09-18T05:11:30;98031.00;;;21.84;100.00
13765;BME280;6953;48.810;9.204;2023-09-18T05:13:56;98037.72;;;21.96;100.00
13765;BME280;6953;48.810;9.204;2023-09-18T05:16:21;98027.19;;;22.02;100.00
13765;BME280;6953;48.810;9.204;2023-09-18T05:18:47;98023.50;;;22.03;100.00
13765;BME280;6953;48.810;9.204;2023-09-18T05:21:12;97974.41;;;21.72;100.00
13765;BME280;6953;48.810;9.204;2023-09-18T05:23:37;97977.25;;;21.71;100.00
13765;BME280;6953;48.810;9.204;2023-09-18T05:26:03;97853.25;;;20.94;100.00
13765;BME280;6953;48.810;9.204;2023-09-18T05:28:28;98098.00;;;22.22;100.00
13765;BME280;6953;48.810;9.204;2023-09-18T05:30:54;98093.81;;;22.27;100.00
13765;BME280;6953;48.810;9.204;2023-09-18T05:33:20;97909.31;;;21.25;100.00
13765;BME280;6953;48.810;9.204;2023-09-18T05:35:45;98016.97;;;22.05;99.96
13765;BME280;6953;48.810;9.204;2023-09-18T05:38:12;98079.31;;;22.38;99.64
13765;BME280;6953;48.810;9.204;2023-09-18T05:40:41;98062.59;;;22.36;99.25
13765;BME280;6953;48.810;9.204;2023-09-18T05:43:08;98072.28;;;22.37;98.83
13765;BME280;6953;48.810;9.204;2023-09-18T05:45:35;97874.94;;;21.06;98.01
13765;BME280;6953;48.810;9.204;2023-09-18T05:48:00;98060.56;;;22.22;98.24
13765;BME280;6953;48.810;9.204;2023-09-18T05:50:34;98067.25;;;22.26;97.58
13765;BME280;6953;48.810;9.204;2023-09-18T05:53:01;98076.97;;;22.35;96.70
13765;BME280;6953;48.810;9.204;2023-09-18T05:55:29;98108.69;;;22.54;95.83
13765;BME280;6953;48.810;9.204;2023-09-18T05:57:55;98113.84;;;22.63;95.05
13765;BME280;6953;48.810;9.204;2023-09-18T06:00:21;98076.75;;;22.68;94.33
13765;BME280;6953;48.810;9.204;2023-09-18T06:02:47;98015.97;;;22.38;93.95
13765;BME280;6953;48.810;9.204;2023-09-18T06:05:13;98102.47;;;22.77;93.51
13765;BME280;6953;48.810;9.204;2023-09-18T06:07:41;97857.94;;;21.47;93.21
13765;BME280;6953;48.810;9.204;2023-09-18T06:10:06;98061.84;;;22.74;92.79
13765;BME280;6953;48.810;9.204;2023-09-18T06:12:32;98086.28;;;22.71;92.53
13765;BME280;6953;48.810;9.204;2023-09-18T06:14:57;98032.81;;;22.55;92.36
13765;BME280;6953;48.810;9.204;2023-09-18T06:17:23;97787.06;;;21.05;92.29
13765;BME280;6953;48.810;9.204;2023-09-18T06:19:49;98056.25;;;22.45;93.40
13765;BME280;6953;48.810;9.204;2023-09-18T06:22:14;97844.09;;;21.04;94.36
13765;BME280;6953;48.810;9.204;2023-09-18T06:24:40;97979.13;;;21.70;95.05
13765;BME280;6953;48.810;9.204;2023-09-18T06:27:05;97978.09;;;21.71;95.37
13765;BME280;6953;48.810;9.204;2023-09-18T06:29:32;98012.84;;;21.87;95.19
13765;BME280;6953;48.810;9.204;2023-09-18T06:31:57;98069.44;;;21.91;96.72
13765;BME280;6953;48.810;9.204;2023-09-18T06:34:22;98061.31;;;21.51;98.51
13765;BME280;6953;48.810;9.204;2023-09-18T06:36:48;97849.03;;;20.18;99.58
13765;BME280;6953;48.810;9.204;2023-09-18T06:39:14;98062.47;;;21.40;100.00
13765;BME280;6953;48.810;9.204;2023-09-18T06:41:40;97932.78;;;20.57;100.00
13765;BME280;6953;48.810;9.204;2023-09-18T06:44:05;98052.53;;;21.09;100.00
13765;BME280;6953;48.810;9.204;2023-09-18T06:46:31;98074.59;;;21.19;100.00
13765;BME280;6953;48.810;9.204;2023-09-18T06:48:56;98048.31;;;20.98;100.00
13765;BME280;6953;48.810;9.204;2023-09-18T06:51:23;98081.50;;;21.04;100.00
13765;BME280;6953;48.810;9.204;2023-09-18T06:53:48;98094.53;;;21.07;100.00
13765;BME280;6953;48.810;9.204;2023-09-18T06:56:13;98090.25;;;20.81;100.00
13765;BME280;6953;48.810;9.204;2023-09-18T06:58:38;98128.66;;;20.96;100.00
13765;BME280;6953;48.810;9.204;2023-09-18T07:01:04;98025.16;;;20.40;100.00
13765;BME280;6953;48.810;9.204;2023-09-18T07:03:32;98085.47;;;20.92;100.00
13765;BME280;6953;48.810;9.204;2023-09-18T07:05:59;98083.47;;;20.94;100.00
13765;BME280;6953;48.810;9.204;2023-09-18T07:08:24;98073.94;;;20.92;100.00
13765;BME280;6953;48.810;9.204;2023-09-18T07:10:50;97957.63;;;20.24;100.00
13765;BME280;6953;48.810;9.204;2023-09-18T07:13:15;98025.97;;;20.66;100.00
13765;BME280;6953;48.810;9.204;2023-09-18T07:15:41;98100.72;;;21.07;100.00
13765;BME280;6953;48.810;9.204;2023-09-18T07:18:06;98101.97;;;21.29;100.00
13765;BME280;6953;48.810;9.204;2023-09-18T07:20:31;98098.00;;;21.41;100.00
13765;BME280;6953;48.810;9.204;2023-09-18T07:22:57;98090.38;;;21.54;100.00
13765;BME280;6953;48.810;9.204;2023-09-18T07:25:22;97891.63;;;20.59;100.00
13765;BME280;6953;48.810;9.204;2023-09-18T07:27:48;98057.88;;;21.74;100.00
13765;BME280;6953;48.810;9.204;2023-09-18T07:30:14;98030.16;;;21.59;100.00
13765;BME280;6953;48.810;9.204;2023-09-18T07:32:45;98051.38;;;21.69;100.00
13765;BME280;6953;48.810;9.204;2023-09-18T07:35:11;98103.31;;;21.98;100.00
13765;BME280;6953;48.810;9.204;2023-09-18T07:37:38;98104.19;;;21.99;100.00
13765;BME280;6953;48.810;9.204;2023-09-18T07:40:05;98093.47;;;21.91;100.00
13765;BME280;6953;48.810;9.204;2023-09-18T07:42:31;97870.66;;;20.56;100.00
13765;BME280;6953;48.810;9.204;2023-09-18T07:44:56;98113.50;;;21.87;100.00
13765;BME280;6953;48.810;9.204;2023-09-18T07:47:22;98151.22;;;21.84;100.00
13765;BME280;6953;48.810;9.204;2023-09-18T07:49:47;98156.59;;;22.07;100.00
13765;BME280;6953;48.810;9.204;2023-09-18T07:52:13;98105.34;;;21.88;100.00
13765;BME280;6953;48.810;9.204;2023-09-18T07:54:39;98163.19;;;22.45;100.00
13765;BME280;6953;48.810;9.204;2023-09-18T07:57:05;98145.44;;;22.76;100.00
13765;BME280;6953;48.810;9.204;2023-09-18T07:59:34;98144.03;;;23.19;97.56
13765;BME280;6953;48.810;9.204;2023-09-18T08:02:00;98159.28;;;23.96;93.14
13765;BME280;6953;48.810;9.204;2023-09-18T08:04:25;98157.75;;;24.46;89.29
13765;BME280;6953;48.810;9.204;2023-09-18T08:06:50;98089.91;;;24.60;86.85
13765;BME280;6953;48.810;9.204;2023-09-18T08:09:15;98145.34;;;25.33;84.94
13765;BME280;6953;48.810;9.204;2023-09-18T08:11:42;98167.84;;;25.46;83.81
13765;BME280;6953;48.810;9.204;2023-09-18T08:14:08;97980.31;;;24.34;82.73
13765;BME280;6953;48.810;9.204;2023-09-18T08:16:34;98184.91;;;25.53;81.77
13765;BME280;6953;48.810;9.204;2023-09-18T08:19:01;98112.75;;;25.07;80.38
13765;BME280;6953;48.810;9.204;2023-09-18T08:21:26;98178.97;;;25.29;79.77
13765;BME280;6953;48.810;9.204;2023-09-18T08:23:54;98185.38;;;25.14;80.04
13765;BME280;6953;48.810;9.204;2023-09-18T08:26:19;98196.44;;;25.11;80.36
13765;BME280;6953;48.810;9.204;2023-09-18T08:28:45;98212.88;;;24.93;78.69
13765;BME280;6953;48.810;9.204;2023-09-18T08:31:11;98228.94;;;24.79;78.97
13765;BME280;6953;48.810;9.204;2023-09-18T08:33:36;98102.75;;;23.75;78.08
13765;BME280;6953;48.810;9.204;2023-09-18T08:36:01;98199.66;;;24.24;78.42
13765;BME280;6953;48.810;9.204;2023-09-18T08:38:27;98180.06;;;24.16;78.16
13765;BME280;6953;48.810;9.204;2023-09-18T08:40:54;98073.34;;;23.36;77.70
13765;BME280;6953;48.810;9.204;2023-09-18T08:43:19;98223.34;;;23.75;80.90
13765;BME280;6953;48.810;9.204;2023-09-18T08:45:51;98238.25;;;23.15;84.58
13765;BME280;6953;48.810;9.204;2023-09-18T08:48:21;98213.16;;;22.52;88.53
13765;BME280;6953;48.810;9.204;2023-09-18T08:50:47;98199.50;;;21.90;90.12
13765;BME280;6953;48.810;9.204;2023-09-18T08:53:13;98241.16;;;21.75;92.87
13765;BME280;6953;48.810;9.204;2023-09-18T08:55:40;98249.00;;;21.43;94.12
13765;BME280;6953;48.810;9.204;2023-09-18T08:58:06;98252.25;;;21.55;95.06
13765;BME280;6953;48.810;9.204;2023-09-18T09:00:33;98020.81;;;20.14;96.09
13765;BME280;6953;48.810;9.204;2023-09-18T09:02:59;98025.31;;;19.96;97.84
13765;BME280;6953;48.810;9.204;2023-09-18T09:05:24;98263.56;;;21.23;98.55
13765;BME280;6953;48.810;9.204;2023-09-18T09:07:50;97989.00;;;19.70;99.98
13765;BME280;6953;48.810;9.204;2023-09-18T09:10:17;98017.50;;;19.60;100.00
13765;BME280;6953;48.810;9.204;2023-09-18T09:12:58;98245.91;;;20.80;100.00
13765;BME280;6953;48.810;9.204;2023-09-18T09:15:28;98213.00;;;20.54;100.00
13765;BME280;6953;48.810;9.204;2023-09-18T09:18:04;98269.75;;;20.81;100.00
13765;BME280;6953;48.810;9.204;2023-09-18T09:20:30;98289.41;;;20.80;100.00
13765;BME280;6953;48.810;9.204;2023-09-18T09:23:00;98049.91;;;19.55;100.00
13765;BME280;6953;48.810;9.204;2023-09-18T09:25:28;98081.84;;;19.90;100.00
13765;BME280;6953;48.810;9.204;2023-09-18T09:27:57;98237.44;;;20.84;100.00
13765;BME280;6953;48.810;9.204;2023-09-18T09:30:24;98237.31;;;20.86;100.00
13765;BME280;6953;48.810;9.204;2023-09-18T09:32:51;98268.91;;;20.98;100.00
13765;BME280;6953;48.810;9.204;2023-09-18T09:35:28;98257.84;;;20.93;100.00
13765;BME280;6953;48.810;9.204;2023-09-18T09:37:57;98009.31;;;19.36;100.00
13765;BME280;6953;48.810;9.204;2023-09-18T09:40:24;98141.69;;;20.13;100.00
13765;BME280;6953;48.810;9.204;2023-09-18T09:42:55;98091.47;;;20.00;100.00
13765;BME280;6953;48.810;9.204;2023-09-18T09:45:29;98249.59;;;21.04;100.00
13765;BME280;6953;48.810;9.204;2023-09-18T09:47:56;98236.25;;;21.04;100.00
13765;BME280;6953;48.810;9.204;2023-09-18T09:50:21;98239.47;;;21.07;100.00
13765;BME280;6953;48.810;9.204;2023-09-18T09:52:48;98200.00;;;20.94;100.00
13765;BME280;6953;48.810;9.204;2023-09-18T09:55:19;98173.66;;;20.73;100.00
13765;BME280;6953;48.810;9.204;2023-09-18T09:57:53;98239.06;;;21.28;100.00
13765;BME280;6953;48.810;9.204;2023-09-18T10:00:19;97993.84;;;19.91;100.00
13765;BME280;6953;48.810;9.204;2023-09-18T10:02:59;97943.63;;;19.96;100.00
13765;BME280;6953;48.810;9.204;2023-09-18T10:05:27;98248.59;;;21.97;100.00
13765;BME280;6953;48.810;9.204;2023-09-18T10:07:54;98244.69;;;22.25;100.00
13765;BME280;6953;48.810;9.204;2023-09-18T10:10:24;98232.44;;;21.99;100.00
13765;BME280;6953;48.810;9.204;2023-09-18T10:12:50;98000.41;;;20.48;100.00
13765;BME280;6953;48.810;9.204;2023-09-18T10:15:16;98184.91;;;21.35;100.00
13765;BME280;6953;48.810;9.204;2023-09-18T10:17:43;98255.97;;;21.62;100.00
13765;BME280;6953;48.810;9.204;2023-09-18T10:20:15;98253.25;;;21.54;100.00
13765;BME280;6953;48.810;9.204;2023-09-18T10:22:46;98017.13;;;19.89;100.00
13765;BME280;6953;48.810;9.204;2023-09-18T10:25:20;98255.56;;;20.98;100.00
13765;BME280;6953;48.810;9.204;2023-09-18T10:27:48;98221.88;;;20.62;100.00
13765;BME280;6953;48.810;9.204;2023-09-18T10:30:16;98316.97;;;21.06;100.00
13765;BME280;6953;48.810;9.204;2023-09-18T10:32:44;98320.63;;;21.05;100.00
13765;BME280;6953;48.810;9.204;2023-09-18T10:35:14;98264.47;;;20.72;100.00
13765;BME280;6953;48.810;9.204;2023-09-18T10:37:41;98171.28;;;20.10;100.00
13765;BME280;6953;48.810;9.204;2023-09-18T10:40:08;98264.25;;;20.65;100.00
13765;BME280;6953;48.810;9.204;2023-09-18T10:42:35;98275.13;;;20.72;100.00
13765;BME280;6953;48.810;9.204;2023-09-18T10:45:03;98331.09;;;20.81;100.00
13765;BME280;6953;48.810;9.204;2023-09-18T10:47:30;98314.47;;;20.87;100.00
13765;BME280;6953;48.810;9.204;2023-09-18T10:49:56;98313.03;;;20.93;100.00
13765;BME280;6953;48.810;9.204;2023-09-18T10:52:21;98270.28;;;20.85;100.00
13765;BME280;6953;48.810;9.204;2023-09-18T10:54:47;98016.69;;;19.42;100.00
13765;BME280;6953;48.810;9.204;2023-09-18T10:57:12;98250.63;;;20.86;100.00
13765;BME280;6953;48.810;9.204;2023-09-18T10:59:47;98214.97;;;20.52;100.00
13765;BME280;6953;48.810;9.204;2023-09-18T11:02:16;98247.41;;;20.82;100.00
13765;BME280;6953;48.810;9.204;2023-09-18T11:04:44;98256.28;;;20.83;100.00
13765;BME280;6953;48.810;9.204;2023-09-18T11:07:20;98249.84;;;20.76;100.00
13765;BME280;6953;48.810;9.204;2023-09-18T11:09:45;98209.03;;;20.40;100.00
13765;BME280;6953;48.810;9.204;2023-09-18T11:12:11;98244.91;;;20.63;100.00
13765;BME280;6953;48.810;9.204;2023-09-18T11:14:58;98249.25;;;20.64;100.00
13765;BME280;6953;48.810;9.204;2023-09-18T11:17:36;98259.38;;;20.61;100.00
13765;BME280;6953;48.810;9.204;2023-09-18T11:22:38;98240.84;;;20.59;100.00
13765;BME280;6953;48.810;9.204;2023-09-18T11:28:00;98016.59;;;19.16;100.00
13765;BME280;6953;48.810;9.204;2023-09-18T11:30:26;98272.03;;;20.94;100.00
13765;BME280;6953;48.810;9.204;2023-09-18T11:32:52;98266.47;;;20.87;100.00
13765;BME280;6953;48.810;9.204;2023-09-18T11:35:19;98258.53;;;20.78;100.00
13765;BME280;6953;48.810;9.204;2023-09-18T11:37:45;98226.00;;;20.74;100.00
13765;BME280;6953;48.810;9.204;2023-09-18T11:40:36;98239.66;;;20.71;100.00
13765;BME280;6953;48.810;9.204;2023-09-18T11:43:32;98263.34;;;20.74;100.00
13765;BME280;6953;48.810;9.204;2023-09-18T11:46:00;98191.63;;;20.28;100.00
13765;BME280;6953;48.810;9.204;2023-09-18T11:48:29;98219.94;;;20.47;100.00
13765;BME280;6953;48.810;9.204;2023-09-18T11:50:58;98064.06;;;19.73;100.00
13765;BME280;6953;48.810;9.204;2023-09-18T11:53:27;98275.50;;;21.37;100.00
13765;BME280;6953;48.810;9.204;2023-09-18T11:55:53;98222.16;;;21.45;100.00
13765;BME280;6953;48.810;9.204;2023-09-18T11:58:18;98119.16;;;21.26;100.00
13765;BME280;6953;48.810;9.204;2023-09-18T12:00:49;98259.44;;;22.53;100.00
13765;BME280;6953;48.810;9.204;2023-09-18T12:03:21;98301.94;;;22.96;99.99
13765;BME280;6953;48.810;9.204;2023-09-18T12:05:52;98278.22;;;23.01;98.56
13765;BME280;6953;48.810;9.204;2023-09-18T12:08:18;98120.34;;;22.13;97.39
13765;BME280;6953;48.810;9.204;2023-09-18T12:10:44;98289.56;;;23.34;96.14
13765;BME280;6953;48.810;9.204;2023-09-18T12:13:09;98096.47;;;22.27;94.37
13765;BME280;6953;48.810;9.204;2023-09-18T12:15:37;98310.63;;;23.61;94.22
13765;BME280;6953;48.810;9.204;2023-09-18T12:18:06;98302.59;;;23.69;93.20
13765;BME280;6953;48.810;9.204;2023-09-18T12:20:31;98281.00;;;23.63;93.45
13765;BME280;6953;48.810;9.204;2023-09-18T12:22:59;98261.41;;;23.62;93.47
13765;BME280;6953;48.810;9.204;2023-09-18T12:25:24;98262.06;;;23.56;93.22
13765;BME280;6953;48.810;9.204;2023-09-18T12:27:53;98278.84;;;23.50;93.26
13765;BME280;6953;48.810;9.204;2023-09-18T12:30:19;98288.75;;;23.34;93.05
13765;BME280;6953;48.810;9.204;2023-09-18T12:32:46;98274.22;;;23.28;93.80
13765;BME280;6953;48.810;9.204;2023-09-18T12:35:15;98258.81;;;23.30;93.66
13765;BME280;6953;48.810;9.204;2023-09-18T12:37:41;98247.88;;;23.48;93.14
13765;BME280;6953;48.810;9.204;2023-09-18T12:40:20;98265.22;;;23.68;91.88
13765;BME280;6953;48.810;9.204;2023-09-18T12:42:46;98264.13;;;24.01;90.92
13765;BME280;6953;48.810;9.204;2023-09-18T12:45:11;98106.78;;;23.48;89.08
13765;BME280;6953;48.810;9.204;2023-09-18T12:47:38;98077.19;;;23.95;86.03
13765;BME280;6953;48.810;9.204;2023-09-18T12:50:05;98202.06;;;25.38;83.17
13765;BME280;6953;48.810;9.204;2023-09-18T12:52:32;98274.72;;;26.66;78.57
13765;BME280;6953;48.810;9.204;2023-09-18T12:54:58;98277.28;;;27.16;75.19
13765;BME280;6953;48.810;9.204;2023-09-18T12:57:25;98118.59;;;26.45;73.96
13765;BME280;6953;48.810;9.204;2023-09-18T12:59:50;98255.34;;;28.14;70.48
13765;BME280;6953;48.810;9.204;2023-09-18T13:02:18;98239.31;;;28.47;67.08
13765;BME280;6953;48.810;9.204;2023-09-18T13:04:56;98200.81;;;28.25;67.09
13765;BME280;6953;48.810;9.204;2023-09-18T13:07:23;98252.81;;;28.53;67.95
13765;BME280;6953;48.810;9.204;2023-09-18T13:10:05;98246.16;;;28.49;66.59